Time;durP1;ratioP1;P1;durP2;ratioP2;P2;SDS_P1;SDS_P2;PMS_P1;PMS_P2;Temp;Humidity;BMP_temperature;BMP_pressure;BME280_temperature;BME280_humidity;BME280_pressure;Samples;Min_cycle;Max_cycle;Signal;HPM_P1;HPM_P2
2021/08/28 04:32:47;;;;;;;18.53;13.37;;;13.80;99.90;;;;;;5001264;23;20913;-80
2021/08/28 04:35:13;;;;;;;17.33;14.33;;;13.80;99.90;;;;;;4956912;29;20424;-80
2021/08/28 04:37:39;;;;;;;19.87;15.43;;;13.80;99.90;;;;;;4974701;28;20223;-82
2021/08/28 04:40:05;;;;;;;17.37;13.80;;;13.80;99.90;;;;;;4965392;29;20275;-79
2021/08/28 04:42:30;;;;;;;18.93;13.87;;;13.80;99.90;;;;;;4968789;28;20701;-80
2021/08/28 04:44:56;;;;;;;19.67;15.50;;;13.80;99.90;;;;;;4964970;29;20409;-79
2021/08/28 04:47:21;;;;;;;20.93;15.27;;;13.80;99.90;;;;;;4969914;29;20181;-80
2021/08/28 04:49:48;;;;;;;16.20;12.03;;;13.80;99.90;;;;;;4973629;29;20216;-80
2021/08/28 04:52:13;;;;;;;16.77;14.17;;;13.80;99.90;;;;;;4966218;28;20199;-80
2021/08/28 04:54:39;;;;;;;17.53;15.27;;;13.70;99.90;;;;;;4970278;29;20424;-78
2021/08/28 04:57:04;;;;;;;19.23;16.27;;;13.70;99.90;;;;;;4969161;29;20216;-79
2021/08/28 04:59:30;;;;;;;27.50;17.50;;;13.70;99.90;;;;;;4969075;29;20173;-79
2021/08/28 05:01:58;;;;;;;25.97;16.00;;;13.70;99.90;;;;;;4968781;28;20215;-80
2021/08/28 05:04:24;;;;;;;19.73;15.67;;;13.80;99.90;;;;;;4968244;29;20172;-80
2021/08/28 05:06:50;;;;;;;19.70;14.17;;;13.80;99.90;;;;;;4957425;29;20985;-79
2021/08/28 05:09:15;;;;;;;20.17;15.10;;;13.80;99.90;;;;;;4956395;29;20185;-80
2021/08/28 05:11:41;;;;;;;17.37;14.87;;;13.80;99.90;;;;;;4956354;28;20291;-80
2021/08/28 05:14:06;;;;;;;19.93;15.23;;;13.80;99.90;;;;;;4956624;29;20271;-79
2021/08/28 05:16:32;;;;;;;19.30;14.97;;;13.80;99.90;;;;;;4956374;29;20212;-80
2021/08/28 05:18:57;;;;;;;24.07;15.00;;;13.80;99.90;;;;;;4957993;29;20684;-79
2021/08/28 05:21:23;;;;;;;23.17;14.13;;;13.90;99.90;;;;;;4958655;28;20214;-82
2021/08/28 05:23:48;;;;;;;21.23;15.33;;;13.80;99.90;;;;;;4958579;29;21004;-79
2021/08/28 05:26:14;;;;;;;21.87;16.50;;;13.90;99.90;;;;;;4956436;29;20184;-80
2021/08/28 05:28:39;;;;;;;22.37;16.57;;;13.80;99.90;;;;;;4953841;29;20176;-78
2021/08/28 05:31:05;;;;;;;18.67;15.27;;;13.90;99.90;;;;;;4953631;28;20724;-77
2021/08/28 05:33:30;;;;;;;21.57;16.83;;;13.90;99.90;;;;;;4953539;29;20688;-77
2021/08/28 05:35:56;;;;;;;20.30;14.57;;;14.00;99.90;;;;;;4953337;29;20359;-77
2021/08/28 05:38:21;;;;;;;17.83;14.83;;;14.00;99.90;;;;;;4953535;29;20227;-78
2021/08/28 05:40:46;;;;;;;18.83;15.10;;;14.00;99.90;;;;;;4953573;28;20197;-77
2021/08/28 05:43:12;;;;;;;25.73;16.30;;;14.10;99.90;;;;;;4952438;28;20544;-78
2021/08/28 05:45:39;;;;;;;18.63;15.57;;;14.10;99.90;;;;;;4959105;29;20215;-77
2021/08/28 05:48:04;;;;;;;19.90;15.87;;;14.10;99.90;;;;;;4960077;29;20420;-78
2021/08/28 05:50:30;;;;;;;17.60;15.70;;;14.20;99.90;;;;;;4959789;28;20185;-76
2021/08/28 05:52:55;;;;;;;18.03;14.20;;;14.20;99.90;;;;;;4959843;28;20255;-78
2021/08/28 05:55:21;;;;;;;18.73;16.17;;;14.20;99.90;;;;;;4959473;28;20185;-78
2021/08/28 05:57:46;;;;;;;16.90;15.10;;;14.30;99.90;;;;;;4959831;29;20208;-74
2021/08/28 06:00:12;;;;;;;18.80;13.77;;;14.20;99.90;;;;;;4959875;28;20184;-77
2021/08/28 06:02:38;;;;;;;16.63;14.67;;;14.20;99.90;;;;;;4959512;28;20222;-76
2021/08/28 06:05:08;;;;;;;20.00;14.10;;;14.20;99.90;;;;;;4958470;29;20523;-76
2021/08/28 06:07:34;;;;;;;19.77;14.83;;;14.30;99.90;;;;;;4959656;28;20471;-76
2021/08/28 06:10:00;;;;;;;17.07;14.30;;;14.30;99.90;;;;;;4959475;28;20828;-76
2021/08/28 06:12:27;;;;;;;18.33;14.10;;;14.30;99.90;;;;;;4959696;28;20210;-76
2021/08/28 06:14:52;;;;;;;22.80;13.80;;;14.40;99.90;;;;;;4958225;28;20428;-76
2021/08/28 06:17:18;;;;;;;15.03;12.90;;;14.40;99.90;;;;;;4959241;28;20988;-76
2021/08/28 06:19:43;;;;;;;19.13;13.30;;;14.40;99.90;;;;;;4959208;29;20191;-76
2021/08/28 06:22:09;;;;;;;23.33;13.80;;;14.40;99.90;;;;;;4959245;28;20204;-76
2021/08/28 06:24:34;;;;;;;14.57;12.87;;;14.40;99.90;;;;;;4959420;29;20197;-76
2021/08/28 06:27:00;;;;;;;15.60;13.83;;;14.50;99.90;;;;;;4959302;28;20188;-76
2021/08/28 06:29:25;;;;;;;23.80;15.07;;;14.50;99.90;;;;;;4959351;29;20176;-76
2021/08/28 06:31:51;;;;;;;17.80;13.63;;;14.50;99.90;;;;;;4959410;28;20239;-76
2021/08/28 06:34:17;;;;;;;18.03;15.10;;;14.60;99.90;;;;;;4959456;28;20200;-76
2021/08/28 06:36:42;;;;;;;22.13;15.50;;;14.60;99.90;;;;;;4959328;29;20251;-76
2021/08/28 06:39:08;;;;;;;16.23;14.37;;;14.60;99.90;;;;;;4959151;29;20172;-76
2021/08/28 06:41:33;;;;;;;18.07;15.07;;;14.50;99.90;;;;;;4959150;28;20276;-75
2021/08/28 06:43:59;;;;;;;20.00;15.53;;;14.50;99.90;;;;;;4959449;28;20177;-77
2021/08/28 06:46:26;;;;;;;21.70;16.30;;;14.40;99.90;;;;;;4959097;28;20177;-77
2021/08/28 06:48:52;;;;;;;21.07;14.17;;;14.40;99.90;;;;;;4959246;28;20260;-76
2021/08/28 06:51:18;;;;;;;17.37;14.20;;;14.50;99.90;;;;;;4959419;28;20442;-76
2021/08/28 06:53:43;;;;;;;16.23;13.63;;;14.40;99.90;;;;;;4958962;28;21248;-76
2021/08/28 06:56:09;;;;;;;17.37;13.10;;;14.50;99.90;;;;;;4957291;28;21006;-76
2021/08/28 06:58:35;;;;;;;19.10;14.50;;;14.60;99.90;;;;;;4954407;28;20193;-76
2021/08/28 07:01:00;;;;;;;14.10;12.57;;;14.60;99.90;;;;;;4954928;28;20197;-76
2021/08/28 07:03:28;;;;;;;15.63;12.73;;;14.70;99.90;;;;;;4955803;29;20638;-77
2021/08/28 07:05:54;;;;;;;12.93;11.43;;;15.00;99.90;;;;;;4956074;29;20177;-77
2021/08/28 07:08:20;;;;;;;13.93;11.30;;;15.50;99.90;;;;;;4965972;29;20450;-75
2021/08/28 07:10:46;;;;;;;11.47;10.37;;;16.20;99.90;;;;;;4957276;28;20260;-77
2021/08/28 07:13:12;;;;;;;11.87;9.40;;;16.90;99.90;;;;;;4958350;28;20196;-81
2021/08/28 07:15:38;;;;;;;11.90;9.97;;;17.20;99.90;;;;;;4960803;29;20807;-80
2021/08/28 07:18:03;;;;;;;11.40;8.50;;;17.20;99.90;;;;;;4962889;29;20196;-81
2021/08/28 07:20:29;;;;;;;8.40;7.60;;;17.00;99.90;;;;;;4961258;28;20555;-81
2021/08/28 07:22:55;;;;;;;9.63;8.37;;;16.80;99.90;;;;;;4960640;29;20181;-80
2021/08/28 07:25:20;;;;;;;9.47;7.60;;;16.60;99.90;;;;;;4958499;29;20169;-81
2021/08/28 07:27:46;;;;;;;8.30;7.40;;;16.70;99.90;;;;;;4957628;29;20181;-80
2021/08/28 07:30:12;;;;;;;7.77;6.97;;;16.60;99.90;;;;;;4955006;29;20181;-80
2021/08/28 07:32:37;;;;;;;7.80;6.13;;;17.00;99.90;;;;;;4956129;28;20224;-80
2021/08/28 07:35:04;;;;;;;6.43;5.70;;;17.70;99.90;;;;;;4956646;28;20256;-80
2021/08/28 07:37:30;;;;;;;6.90;5.90;;;18.10;99.90;;;;;;4955922;29;20236;-81
2021/08/28 07:39:55;;;;;;;6.90;6.20;;;18.60;99.90;;;;;;4956105;28;20917;-82
2021/08/28 07:42:21;;;;;;;6.70;6.00;;;19.00;99.90;;;;;;4955993;28;20573;-81
2021/08/28 07:44:46;;;;;;;5.70;4.90;;;19.10;99.90;;;;;;4956021;28;20730;-80
2021/08/28 07:47:12;;;;;;;5.17;4.77;;;19.00;99.90;;;;;;4955606;29;20188;-80
2021/08/28 07:49:39;;;;;;;4.77;4.20;;;18.60;99.90;;;;;;4955738;29;20181;-81
2021/08/28 07:52:05;;;;;;;4.70;4.30;;;18.30;99.90;;;;;;4955721;28;20244;-81
2021/08/28 07:54:31;;;;;;;4.70;4.30;;;18.00;99.90;;;;;;4955360;29;20456;-81
2021/08/28 07:56:59;;;;;;;4.60;4.20;;;17.80;99.90;;;;;;4955821;29;20957;-81
2021/08/28 07:59:25;;;;;;;3.93;3.63;;;17.70;99.90;;;;;;4955510;29;20173;-81
2021/08/28 08:01:52;;;;;;;5.60;4.47;;;18.10;99.90;;;;;;4955597;28;20526;-82
2021/08/28 08:04:18;;;;;;;3.47;3.27;;;18.50;99.90;;;;;;4955624;29;20169;-80
2021/08/28 08:06:43;;;;;;;3.13;2.83;;;19.20;99.90;;;;;;4954607;28;20516;-79
2021/08/28 08:09:09;;;;;;;3.27;3.07;;;19.60;99.90;;;;;;4956117;29;20545;-82
2021/08/28 08:11:34;;;;;;;4.33;3.60;;;19.90;99.90;;;;;;4955777;28;20232;-80
2021/08/28 08:14:00;;;;;;;3.67;3.37;;;19.60;99.90;;;;;;4955359;29;20180;-80
2021/08/28 08:16:25;;;;;;;3.00;2.80;;;19.10;99.90;;;;;;4954825;29;20204;-81
2021/08/28 08:18:52;;;;;;;3.43;3.13;;;18.90;99.90;;;;;;4971172;28;20188;-79
2021/08/28 08:21:18;;;;;;;3.90;3.17;;;18.60;99.90;;;;;;4952380;28;20627;-80
2021/08/28 08:23:43;;;;;;;4.33;2.70;;;18.50;99.90;;;;;;4954683;29;20452;-81
2021/08/28 08:26:09;;;;;;;5.70;2.03;;;18.30;99.90;;;;;;4954943;29;20197;-79
2021/08/28 08:28:36;;;;;;;2.20;2.00;;;18.20;99.90;;;;;;4954726;28;20590;-79
2021/08/28 08:31:01;;;;;;;2.47;2.37;;;18.00;99.90;;;;;;4954658;28;20282;-80
2021/08/28 08:33:27;;;;;;;3.20;2.90;;;17.70;99.90;;;;;;4955025;29;20449;-80
2021/08/28 08:35:52;;;;;;;3.20;2.90;;;17.60;99.90;;;;;;4954889;29;20273;-81
2021/08/28 08:38:18;;;;;;;3.37;3.07;;;17.40;99.90;;;;;;4954699;29;20187;-80
2021/08/28 08:40:47;;;;;;;3.03;2.80;;;17.30;99.90;;;;;;4955010;28;20169;-80
2021/08/28 08:43:13;;;;;;;3.03;1.97;;;17.40;99.90;;;;;;4954884;29;20414;-81
2021/08/28 08:45:39;;;;;;;1.40;0.93;;;17.50;99.90;;;;;;4953385;29;20460;-80
2021/08/28 08:48:05;;;;;;;1.50;1.33;;;17.60;99.90;;;;;;4952291;29;20842;-79
2021/08/28 08:50:31;;;;;;;1.80;1.70;;;17.60;99.90;;;;;;4954895;28;20185;-79
2021/08/28 08:53:03;;;;;;;1.83;1.73;;;17.50;99.90;;;;;;4953919;29;20181;-79
2021/08/28 08:55:30;;;;;;;1.40;1.30;;;17.40;99.90;;;;;;4954420;29;20427;-79
2021/08/28 08:57:56;;;;;;;1.63;1.53;;;17.30;99.90;;;;;;4953602;29;20483;-79
2021/08/28 09:00:21;;;;;;;2.80;2.27;;;17.30;99.90;;;;;;4954661;29;20973;-80
2021/08/28 09:02:47;;;;;;;1.93;1.83;;;17.20;99.90;;;;;;4954740;28;20471;-80
2021/08/28 09:05:12;;;;;;;1.97;1.87;;;17.30;99.90;;;;;;4954899;29;20267;-79
2021/08/28 09:07:38;;;;;;;1.80;1.70;;;17.20;99.90;;;;;;4955133;29;20271;-82
2021/08/28 09:10:04;;;;;;;2.07;1.53;;;17.10;99.90;;;;;;4955175;29;20198;-80
2021/08/28 09:12:37;;;;;;;2.60;2.40;;;17.10;99.90;;;;;;4955450;28;20608;-79
2021/08/28 09:15:14;;;;;;;4.93;2.30;;;16.90;99.90;;;;;;4954643;29;20423;-79
2021/08/28 09:17:45;;;;;;;2.10;2.00;;;16.80;99.90;;;;;;4954324;29;20467;-77
2021/08/28 09:20:21;;;;;;;2.83;2.63;;;16.90;99.90;;;;;;4953779;28;20417;-79
2021/08/28 09:22:47;;;;;;;3.93;2.10;;;16.90;99.90;;;;;;4954263;28;20446;-77
2021/08/28 09:25:21;;;;;;;2.10;1.90;;;16.80;99.90;;;;;;4953709;29;20503;-80
2021/08/28 09:27:47;;;;;;;3.23;2.07;;;16.80;99.90;;;;;;4952972;29;20184;-78
2021/08/28 09:30:23;;;;;;;2.43;2.27;;;16.70;99.90;;;;;;4954088;29;20471;-79
2021/08/28 09:32:53;;;;;;;2.70;2.50;;;16.60;99.90;;;;;;4954464;28;20513;-80
2021/08/28 09:35:21;;;;;;;2.47;2.20;;;16.50;99.90;;;;;;4953948;29;20420;-79
2021/08/28 09:38:04;;;;;;;3.30;3.10;;;16.60;99.90;;;;;;4952999;29;20953;-80
2021/08/28 09:40:35;;;;;;;2.93;2.73;;;16.60;99.90;;;;;;4953232;28;20416;-79
2021/08/28 09:43:12;;;;;;;2.93;2.30;;;16.60;99.90;;;;;;4954685;29;20405;-79
2021/08/28 09:45:38;;;;;;;2.10;1.90;;;16.70;99.90;;;;;;4954265;29;20466;-79
2021/08/28 09:48:07;;;;;;;3.53;2.70;;;16.60;99.90;;;;;;4954615;29;20475;-79
2021/08/28 09:50:36;;;;;;;2.10;2.00;;;16.40;99.90;;;;;;4954068;28;20408;-78
2021/08/28 09:53:04;;;;;;;1.80;1.70;;;16.50;99.90;;;;;;4954403;29;20405;-80
2021/08/28 09:55:31;;;;;;;2.00;1.73;;;16.40;99.90;;;;;;4954385;29;20786;-79
2021/08/28 09:57:57;;;;;;;2.70;2.00;;;16.40;99.90;;;;;;4953981;29;20412;-81
2021/08/28 10:00:23;;;;;;;4.03;1.90;;;16.30;99.90;;;;;;4953819;29;20423;-79
2021/08/28 10:03:07;;;;;;;3.20;2.00;;;16.20;99.90;;;;;;4953903;28;20211;-78
2021/08/28 10:05:35;;;;;;;6.10;2.03;;;16.10;99.90;;;;;;4954174;29;20180;-78
2021/08/28 10:08:03;;;;;;;5.43;2.70;;;16.10;99.90;;;;;;4954595;29;20823;-80
2021/08/28 10:10:30;;;;;;;2.10;2.00;;;16.10;99.90;;;;;;4951764;28;20420;-79
2021/08/28 10:12:57;;;;;;;2.87;1.70;;;16.00;99.90;;;;;;4954164;28;20913;-78
2021/08/28 10:15:23;;;;;;;1.73;1.60;;;16.00;99.90;;;;;;4953632;29;20503;-79
2021/08/28 10:17:49;;;;;;;2.03;1.90;;;16.00;99.90;;;;;;4953807;28;20452;-79
2021/08/28 10:20:19;;;;;;;2.13;2.03;;;16.00;99.90;;;;;;4954513;28;20834;-80
2021/08/28 10:22:48;;;;;;;2.03;1.93;;;15.90;99.90;;;;;;4954217;28;20479;-82
2021/08/28 10:25:16;;;;;;;2.27;2.07;;;15.80;99.90;;;;;;4953100;28;20491;-79
2021/08/28 10:27:42;;;;;;;1.80;1.70;;;15.80;99.90;;;;;;4953519;29;20490;-79
2021/08/28 10:30:10;;;;;;;3.83;1.97;;;15.80;99.90;;;;;;4954780;28;20414;-81
2021/08/28 10:32:37;;;;;;;2.07;1.80;;;15.70;99.90;;;;;;4957520;28;20574;-80
2021/08/28 10:35:03;;;;;;;1.87;1.77;;;15.70;99.90;;;;;;4957642;29;20458;-79
2021/08/28 10:37:31;;;;;;;4.33;1.60;;;15.60;99.90;;;;;;4957343;29;20526;-79
2021/08/28 10:39:58;;;;;;;1.63;1.53;;;15.70;99.90;;;;;;4954154;29;20435;-74
2021/08/28 10:42:26;;;;;;;1.40;1.40;;;15.80;99.90;;;;;;4956455;28;20436;-77
2021/08/28 10:44:53;;;;;;;3.67;1.30;;;15.90;99.90;;;;;;4956673;29;20420;-76
2021/08/28 10:47:26;;;;;;;3.13;1.10;;;16.20;99.90;;;;;;4956660;29;20570;-77
2021/08/28 10:49:53;;;;;;;1.30;1.20;;;16.80;99.90;;;;;;4956389;29;20420;-76
2021/08/28 10:52:26;;;;;;;1.50;1.40;;;17.40;99.90;;;;;;4956422;28;20559;-77
2021/08/28 10:55:11;;;;;;;1.20;1.00;;;17.90;99.90;;;;;;4957510;29;20424;-77
2021/08/28 10:57:38;;;;;;;1.13;1.10;;;18.20;99.90;;;;;;4957289;29;20941;-78
2021/08/28 11:00:15;;;;;;;1.40;1.30;;;18.60;99.90;;;;;;4957920;29;20417;-78
2021/08/28 11:02:47;;;;;;;3.67;1.13;;;18.80;99.90;;;;;;4955282;29;20448;-78
2021/08/28 11:05:14;;;;;;;0.70;0.70;;;19.00;99.90;;;;;;4956763;29;20409;-77
2021/08/28 11:07:43;;;;;;;0.70;0.70;;;19.00;99.90;;;;;;4957720;29;20900;-78
2021/08/28 11:10:09;;;;;;;1.20;1.10;;;19.20;99.90;;;;;;4958842;29;20849;-77
2021/08/28 11:12:49;;;;;;;0.77;0.77;;;19.00;99.90;;;;;;4958046;28;20495;-78
2021/08/28 11:15:29;;;;;;;0.97;0.90;;;19.30;99.90;;;;;;4958049;29;20184;-77
2021/08/28 11:18:09;;;;;;;0.80;0.80;;;19.60;99.90;;;;;;4957934;29;20792;-78
2021/08/28 11:20:35;;;;;;;1.90;1.13;;;19.70;99.90;;;;;;4956587;28;20463;-80
2021/08/28 11:23:13;;;;;;;0.70;0.70;;;19.70;99.90;;;;;;4956729;29;20409;-78
2021/08/28 11:25:41;;;;;;;0.80;0.80;;;19.70;99.90;;;;;;4956971;29;20417;-77
2021/08/28 11:28:07;;;;;;;1.03;0.60;;;19.60;99.90;;;;;;4957826;29;20405;-77
2021/08/28 11:30:44;;;;;;;0.90;0.60;;;19.40;99.90;;;;;;4954916;28;20429;-78
2021/08/28 11:33:19;;;;;;;5.57;0.70;;;19.60;99.90;;;;;;4955753;29;20425;-77
2021/08/28 11:35:51;;;;;;;0.57;0.57;;;19.80;99.90;;;;;;4955143;29;20487;-79
2021/08/28 11:38:25;;;;;;;0.50;0.50;;;19.90;99.90;;;;;;4960579;28;20432;-77
2021/08/28 11:40:59;;;;;;;2.73;0.60;;;19.80;99.90;;;;;;4937188;29;20448;-78
2021/08/28 11:43:34;;;;;;;0.50;0.50;;;20.00;99.90;;;;;;4936168;29;20424;-77
2021/08/28 11:46:14;;;;;;;1.10;0.50;;;20.00;99.90;;;;;;4937005;29;20511;-78
2021/08/28 11:48:43;;;;;;;1.30;0.60;;;20.10;99.90;;;;;;4935962;29;20422;-77
2021/08/28 11:51:20;;;;;;;0.50;0.50;;;20.20;99.90;;;;;;4935879;29;20448;-76
2021/08/28 11:53:51;;;;;;;0.57;0.57;;;20.10;99.90;;;;;;4935614;29;20413;-77
2021/08/28 11:56:19;;;;;;;1.20;0.60;;;20.00;99.90;;;;;;4935430;29;20464;-75
2021/08/28 11:58:50;;;;;;;1.53;0.67;;;20.00;99.90;;;;;;4935417;29;20421;-75
2021/08/28 12:01:36;;;;;;;0.80;0.50;;;19.90;99.90;;;;;;4935843;29;20433;-75
2021/08/28 12:04:09;;;;;;;1.73;0.60;;;19.80;99.90;;;;;;4935638;29;20439;-75
2021/08/28 12:06:37;;;;;;;0.90;0.60;;;19.70;99.90;;;;;;4935215;29;20413;-75
2021/08/28 12:09:05;;;;;;;1.80;0.70;;;19.70;99.90;;;;;;4935496;29;20449;-75
2021/08/28 12:11:31;;;;;;;1.30;0.70;;;19.60;99.90;;;;;;4935285;29;20469;-75
2021/08/28 12:13:59;;;;;;;0.50;0.50;;;19.80;99.90;;;;;;4935406;29;20421;-76
2021/08/28 12:16:30;;;;;;;0.80;0.60;;;19.60;99.90;;;;;;4934066;29;20217;-76
2021/08/28 12:19:19;;;;;;;1.87;0.67;;;19.70;99.90;;;;;;4935325;29;20418;-76
2021/08/28 12:21:55;;;;;;;1.90;0.63;;;19.90;99.90;;;;;;4933784;29;20450;-76
2021/08/28 12:24:26;;;;;;;0.80;0.80;;;19.80;99.90;;;;;;4935176;29;20417;-76
2021/08/28 12:26:54;;;;;;;0.80;0.73;;;19.90;99.90;;;;;;4934870;29;20504;-77
2021/08/28 12:29:27;;;;;;;0.90;0.57;;;20.00;99.90;;;;;;4935018;29;20472;-76
2021/08/28 12:31:54;;;;;;;1.37;0.70;;;20.10;99.90;;;;;;4935002;29;20448;-76
2021/08/28 12:34:24;;;;;;;0.80;0.60;;;20.10;99.90;;;;;;4933753;29;20523;-76
2021/08/28 12:36:50;;;;;;;0.50;0.50;;;20.00;99.90;;;;;;4934721;29;20524;-74
2021/08/28 12:39:17;;;;;;;0.50;0.50;;;19.70;99.90;;;;;;4935059;29;20422;-76
2021/08/28 12:41:44;;;;;;;0.70;0.53;;;19.50;99.90;;;;;;4934793;29;20197;-75
2021/08/28 12:44:11;;;;;;;0.60;0.57;;;19.10;99.90;;;;;;4934802;29;20409;-75
2021/08/28 12:46:39;;;;;;;0.50;0.50;;;19.00;99.90;;;;;;4933444;29;20454;-75
2021/08/28 12:49:19;;;;;;;0.60;0.60;;;19.00;99.90;;;;;;4934946;29;20508;-76
2021/08/28 12:51:56;;;;;;;0.90;0.60;;;18.90;99.90;;;;;;4934633;29;20432;-75
2021/08/28 12:54:25;;;;;;;0.60;0.60;;;18.90;99.90;;;;;;4934460;29;20413;-76
2021/08/28 12:56:59;;;;;;;1.20;0.90;;;18.80;99.90;;;;;;4934370;29;20452;-75
2021/08/28 12:59:25;;;;;;;0.73;0.70;;;18.80;99.90;;;;;;4933361;29;20553;-75
2021/08/28 13:01:53;;;;;;;1.13;0.97;;;18.70;99.90;;;;;;4934626;29;20528;-75
2021/08/28 13:04:20;;;;;;;0.70;0.70;;;18.50;99.90;;;;;;4934497;29;20185;-75
2021/08/28 13:07:06;;;;;;;2.07;1.03;;;18.40;99.90;;;;;;4933985;29;20432;-75
2021/08/28 13:09:32;;;;;;;0.97;0.80;;;18.30;99.90;;;;;;4934443;29;20513;-75
2021/08/28 13:11:57;;;;;;;0.80;0.77;;;18.40;99.90;;;;;;4933209;29;21214;-75
2021/08/28 13:14:23;;;;;;;1.43;1.23;;;18.50;99.90;;;;;;4934354;29;20208;-75
2021/08/28 13:16:56;;;;;;;1.40;1.40;;;18.50;99.90;;;;;;4934159;29;20216;-75
2021/08/28 13:19:30;;;;;;;1.20;1.20;;;18.50;99.90;;;;;;4934214;29;20213;-75
2021/08/28 13:21:57;;;;;;;1.73;1.50;;;18.40;99.90;;;;;;4934219;29;20915;-76
2021/08/28 13:24:23;;;;;;;1.33;1.23;;;18.40;99.90;;;;;;4934185;29;20435;-75
2021/08/28 13:27:17;;;;;;;1.73;1.37;;;18.40;99.90;;;;;;4934053;29;20793;-75
2021/08/28 13:29:43;;;;;;;0.97;0.97;;;18.40;99.90;;;;;;4921568;29;20229;-76
2021/08/28 13:32:14;;;;;;;1.50;1.40;;;18.50;99.90;;;;;;4933846;29;20571;-76
2021/08/28 13:34:50;;;;;;;1.50;1.40;;;18.40;99.90;;;;;;4933837;29;20225;-75
2021/08/28 13:37:17;;;;;;;1.27;1.17;;;18.30;99.90;;;;;;4933834;29;20635;-75
2021/08/28 13:39:45;;;;;;;2.00;1.90;;;18.30;99.90;;;;;;4933894;29;20413;-74
2021/08/28 13:42:25;;;;;;;1.37;1.30;;;18.30;99.90;;;;;;4933931;29;20536;-75
2021/08/28 13:44:51;;;;;;;2.00;1.90;;;18.40;99.90;;;;;;4934039;29;20544;-75
2021/08/28 13:47:17;;;;;;;3.30;2.23;;;18.20;99.90;;;;;;4933813;29;20910;-75
2021/08/28 13:49:42;;;;;;;2.93;2.03;;;18.10;99.90;;;;;;4932455;29;20809;-75
2021/08/28 13:52:11;;;;;;;1.93;1.83;;;18.10;99.90;;;;;;4933798;29;20445;-75
2021/08/28 13:54:37;;;;;;;1.83;1.67;;;18.10;99.90;;;;;;4934106;29;20646;-76
2021/08/28 13:57:03;;;;;;;2.33;1.83;;;18.20;99.90;;;;;;4933767;29;20453;-74
2021/08/28 13:59:28;;;;;;;1.70;1.60;;;18.20;99.90;;;;;;4933782;29;20436;-74
2021/08/28 14:01:54;;;;;;;2.03;1.83;;;18.20;99.90;;;;;;4933873;29;20216;-75
2021/08/28 14:04:19;;;;;;;3.20;2.40;;;18.20;99.90;;;;;;4933846;29;20180;-75
2021/08/28 14:06:45;;;;;;;1.70;1.60;;;18.30;99.90;;;;;;4936634;29;20673;-75
2021/08/28 14:09:10;;;;;;;2.27;1.70;;;18.30;99.90;;;;;;4937656;29;20182;-75
2021/08/28 14:11:36;;;;;;;1.40;1.30;;;18.40;99.90;;;;;;4937422;29;20670;-76
2021/08/28 14:14:01;;;;;;;1.57;1.47;;;18.60;99.90;;;;;;4937593;29;20260;-76
2021/08/28 14:16:27;;;;;;;1.37;1.30;;;18.60;99.90;;;;;;4937065;29;20552;-75
2021/08/28 14:18:52;;;;;;;1.27;1.27;;;18.50;99.90;;;;;;4935845;29;20209;-76
2021/08/28 14:21:18;;;;;;;1.87;1.50;;;18.60;99.90;;;;;;4936636;29;20193;-76
2021/08/28 14:23:45;;;;;;;1.80;1.70;;;18.60;99.90;;;;;;4936784;29;20181;-75
2021/08/28 14:26:10;;;;;;;1.97;1.70;;;18.60;99.90;;;;;;4937096;29;20523;-75
2021/08/28 14:28:36;;;;;;;1.70;1.57;;;18.50;99.90;;;;;;4936866;29;20417;-75
2021/08/28 14:31:01;;;;;;;1.40;1.30;;;18.30;99.90;;;;;;4937225;29;20221;-76
2021/08/28 14:33:27;;;;;;;2.10;2.00;;;18.20;99.90;;;;;;4937041;29;20757;-75
2021/08/28 14:35:52;;;;;;;2.00;1.90;;;18.10;99.90;;;;;;4936659;29;20204;-76
2021/08/28 14:38:18;;;;;;;2.50;1.83;;;18.20;99.90;;;;;;4937108;29;20181;-76
2021/08/28 14:40:44;;;;;;;2.03;1.93;;;18.10;99.90;;;;;;4935581;29;20182;-76
2021/08/28 14:43:12;;;;;;;1.90;1.80;;;18.20;99.90;;;;;;4937284;29;20240;-75
2021/08/28 14:45:38;;;;;;;1.90;1.90;;;18.40;99.90;;;;;;4937087;29;20169;-76
2021/08/28 14:48:04;;;;;;;4.83;2.20;;;18.60;99.90;;;;;;4937004;29;20824;-76
2021/08/28 14:50:30;;;;;;;1.70;1.60;;;18.60;99.90;;;;;;4936930;29;20421;-74
2021/08/28 14:52:55;;;;;;;2.90;2.63;;;18.60;99.90;;;;;;4936995;29;20930;-75
2021/08/28 14:55:21;;;;;;;3.57;2.03;;;18.60;99.90;;;;;;4937056;29;20225;-76
2021/08/28 14:57:47;;;;;;;1.97;1.87;;;18.40;99.90;;;;;;4936528;29;20224;-76
2021/08/28 15:00:13;;;;;;;2.80;2.20;;;18.30;99.90;;;;;;4936988;29;20726;-75
2021/08/28 15:02:38;;;;;;;2.50;2.20;;;18.10;99.90;;;;;;4936686;29;20201;-76
2021/08/28 15:05:05;;;;;;;2.00;1.90;;;18.00;99.90;;;;;;4936853;29;20178;-76
2021/08/28 15:07:31;;;;;;;2.20;2.00;;;17.90;99.90;;;;;;4936585;29;20248;-76
2021/08/28 15:09:56;;;;;;;3.33;1.90;;;17.80;99.90;;;;;;4936662;29;20425;-76
2021/08/28 15:12:22;;;;;;;2.77;2.57;;;17.80;99.90;;;;;;4936768;29;20216;-76
2021/08/28 15:14:47;;;;;;;3.40;2.47;;;17.70;99.90;;;;;;4936686;29;20201;-75
2021/08/28 15:17:13;;;;;;;2.53;2.43;;;17.70;99.90;;;;;;4935309;29;20221;-75
2021/08/28 15:19:38;;;;;;;5.20;2.10;;;17.70;99.90;;;;;;4936479;29;20182;-75
2021/08/28 15:22:05;;;;;;;2.50;2.30;;;17.80;99.90;;;;;;4936660;29;20205;-76
2021/08/28 15:24:33;;;;;;;2.77;2.67;;;17.90;99.90;;;;;;4936442;29;20212;-75
2021/08/28 15:26:59;;;;;;;3.07;2.87;;;17.90;99.90;;;;;;4935147;29;20433;-75
2021/08/28 15:29:25;;;;;;;3.50;3.23;;;17.90;99.90;;;;;;4936348;29;20429;-76
2021/08/28 15:31:50;;;;;;;2.63;2.43;;;18.00;99.90;;;;;;4936168;29;20457;-75
2021/08/28 15:34:17;;;;;;;2.90;2.70;;;17.90;99.90;;;;;;4936388;29;20488;-76
2021/08/28 15:36:43;;;;;;;2.27;2.13;;;17.90;99.90;;;;;;4935872;29;20221;-76
2021/08/28 15:39:09;;;;;;;2.93;2.40;;;17.80;99.90;;;;;;4936217;29;20433;-76
2021/08/28 15:41:34;;;;;;;2.53;2.10;;;17.70;99.90;;;;;;4934750;29;20236;-75
2021/08/28 15:44:00;;;;;;;2.67;2.53;;;17.60;99.90;;;;;;4936297;29;20178;-76
2021/08/28 15:46:25;;;;;;;2.53;2.33;;;17.50;99.90;;;;;;4935868;29;20182;-76
2021/08/28 15:48:51;;;;;;;3.23;2.93;;;17.40;99.90;;;;;;4936047;29;20264;-75
2021/08/28 15:51:17;;;;;;;3.10;2.90;;;17.30;99.90;;;;;;4934772;29;20201;-75
2021/08/28 15:53:43;;;;;;;2.80;2.60;;;17.20;99.90;;;;;;4935830;29;20816;-76
2021/08/28 15:56:08;;;;;;;2.60;2.30;;;17.20;99.90;;;;;;4935734;29;20842;-75
2021/08/28 15:58:34;;;;;;;2.77;2.57;;;17.00;99.90;;;;;;4935767;29;20173;-75
2021/08/28 16:01:00;;;;;;;3.30;3.00;;;17.00;99.90;;;;;;4935801;29;20197;-76
2021/08/28 16:03:26;;;;;;;2.20;2.10;;;16.80;99.90;;;;;;4935690;29;20480;-75
2021/08/28 16:05:51;;;;;;;2.50;2.40;;;16.80;99.90;;;;;;4934762;29;20649;-76
2021/08/28 16:08:17;;;;;;;2.80;2.70;;;16.70;99.90;;;;;;4935574;29;20228;-76
2021/08/28 16:10:44;;;;;;;3.13;2.57;;;16.70;99.90;;;;;;4935589;29;20228;-76
2021/08/28 16:13:10;;;;;;;3.30;3.00;;;16.70;99.90;;;;;;4934956;29;20887;-75
2021/08/28 16:15:36;;;;;;;4.90;2.30;;;16.60;99.90;;;;;;4935434;29;20500;-76
2021/08/28 16:18:03;;;;;;;2.73;2.53;;;16.60;99.90;;;;;;4935324;29;20427;-77
2021/08/28 16:20:29;;;;;;;2.60;2.40;;;16.60;99.90;;;;;;4935733;29;21169;-75
2021/08/28 16:22:54;;;;;;;3.10;2.90;;;16.60;99.90;;;;;;4935438;29;20480;-75
2021/08/28 16:25:20;;;;;;;3.50;3.20;;;16.50;99.90;;;;;;4935347;29;20263;-76
2021/08/28 16:27:46;;;;;;;3.10;2.90;;;16.60;99.90;;;;;;4933665;29;20504;-76
2021/08/28 16:30:12;;;;;;;2.70;2.50;;;16.60;99.90;;;;;;4935473;29;20177;-77
2021/08/28 16:32:38;;;;;;;2.90;2.67;;;16.70;99.90;;;;;;4935157;29;20868;-76
2021/08/28 16:35:04;;;;;;;4.27;2.80;;;16.70;99.90;;;;;;4935371;29;20429;-77
2021/08/28 16:37:29;;;;;;;3.60;2.93;;;16.80;99.90;;;;;;4945607;28;20256;-75
2021/08/28 16:39:55;;;;;;;2.60;2.40;;;16.80;99.90;;;;;;4960710;28;20900;-76
2021/08/28 16:42:20;;;;;;;3.20;2.90;;;16.70;99.90;;;;;;4954000;28;20913;-76
2021/08/28 16:44:46;;;;;;;5.03;2.67;;;16.70;99.90;;;;;;4953084;28;20416;-77
2021/08/28 16:47:12;;;;;;;2.80;2.60;;;16.70;99.90;;;;;;4952889;29;20235;-76
2021/08/28 16:49:41;;;;;;;3.30;3.10;;;16.60;99.90;;;;;;4953809;28;20552;-77
2021/08/28 16:52:07;;;;;;;3.40;3.10;;;16.60;99.90;;;;;;4952606;28;20602;-78
2021/08/28 16:54:32;;;;;;;2.97;2.77;;;16.60;99.90;;;;;;4953792;28;20416;-74
2021/08/28 16:56:58;;;;;;;3.80;3.03;;;16.60;99.90;;;;;;4953492;28;20215;-74
2021/08/28 16:59:23;;;;;;;2.83;2.63;;;16.60;99.90;;;;;;4953642;28;20212;-76
2021/08/28 17:01:49;;;;;;;2.43;2.23;;;16.50;99.90;;;;;;4952408;28;20248;-76
2021/08/28 17:04:14;;;;;;;2.30;2.20;;;16.60;99.90;;;;;;4953660;28;20183;-76
2021/08/28 17:06:40;;;;;;;2.10;2.00;;;16.50;99.90;;;;;;4953098;28;20201;-76
2021/08/28 17:09:05;;;;;;;2.20;1.87;;;16.40;99.90;;;;;;4953695;28;20710;-77
2021/08/28 17:11:31;;;;;;;2.27;2.17;;;16.30;99.90;;;;;;4953361;28;20740;-76
2021/08/28 17:13:57;;;;;;;3.07;2.87;;;16.30;99.90;;;;;;4953585;28;20187;-76
2021/08/28 17:16:22;;;;;;;4.13;2.60;;;16.30;99.90;;;;;;4953288;28;20595;-76